Time;durP1;ratioP1;P1;durP2;ratioP2;P2;SDS_P1;SDS_P2;PMS_P1;PMS_P2;Temp;Humidity;BMP_temperature;BMP_pressure;BME280_temperature;BME280_humidity;BME280_pressure;Samples;Min_cycle;Max_cycle;Signal;HPM_P1;HPM_P2
2022/12/22 03:27:16;;;;;;;69.18;16.60;;;;;;;;;;5038880;28;20143;-78
2022/12/22 03:29:43;;;;;;;237.88;20.63;;;;;;;;;;5039574;28;20048;-78
2022/12/22 03:32:11;;;;;;;71.88;18.67;;;;;;;;;;5039513;28;20073;-79
2022/12/22 03:34:38;;;;;;;92.43;18.52;;;;;;;;;;5035192;28;20038;-79
2022/12/22 03:37:05;;;;;;;82.70;19.45;;;;;;;;;;5040192;28;20057;-79
2022/12/22 03:39:32;;;;;;;222.70;20.23;;;;;;;;;;5040788;28;20501;-79
2022/12/22 03:47:37;;;;;;;123.30;19.30;;;;;;;;;;5034437;28;20065;-79
2022/12/22 03:50:05;;;;;;;96.80;17.80;;;;;;;;;;5034877;28;20094;-79
2022/12/22 03:52:34;;;;;;;156.45;19.88;;;;;;;;;;5036933;28;20118;-79
2022/12/22 03:55:01;;;;;;;141.05;19.63;;;;;;;;;;5033411;28;20056;-79
2022/12/22 03:57:29;;;;;;;229.02;19.85;;;;;;;;;;5032807;28;20058;-79
2022/12/22 03:59:56;;;;;;;139.48;18.02;;;;;;;;;;5036224;28;20054;-79
2022/12/22 04:02:24;;;;;;;214.95;19.00;;;;;;;;;;5034090;28;22150;-79
2022/12/22 04:04:54;;;;;;;623.95;29.48;;;;;;;;;;5037811;28;20500;-79
2022/12/22 04:07:22;;;;;;;366.25;22.17;;;;;;;;;;5038923;28;20049;-80
2022/12/22 04:12:55;;;;;;;436.67;26.23;;;;;;;;;;5039073;28;20050;-80
2022/12/22 04:15:26;;;;;;;400.77;20.73;;;;;;;;;;5038156;28;20053;-80
2022/12/22 04:17:54;;;;;;;335.63;18.63;;;;;;;;;;5037269;28;20068;-80
2022/12/22 04:20:21;;;;;;;242.93;19.80;;;;;;;;;;5040995;28;20092;-80
2022/12/22 04:22:51;;;;;;;544.47;29.92;;;;;;;;;;5040331;28;20046;-79
2022/12/22 04:25:18;;;;;;;441.05;22.40;;;;;;;;;;5035486;28;20065;-80
2022/12/22 04:27:46;;;;;;;211.90;16.00;;;;;;;;;;5038101;28;20078;-79
2022/12/22 04:30:13;;;;;;;555.53;27.23;;;;;;;;;;5041335;28;20058;-80
2022/12/22 04:32:40;;;;;;;601.25;27.13;;;;;;;;;;5037585;28;20109;-79
2022/12/22 04:35:08;;;;;;;403.95;20.35;;;;;;;;;;5039862;28;20073;-80
2022/12/22 04:37:35;;;;;;;409.60;23.67;;;;;;;;;;5040351;28;20038;-80
2022/12/22 04:40:03;;;;;;;548.97;27.88;;;;;;;;;;5037480;28;20934;-80
2022/12/22 04:42:33;;;;;;;214.77;19.17;;;;;;;;;;5037869;28;20057;-80
2022/12/22 04:45:07;;;;;;;257.50;20.10;;;;;;;;;;5047492;28;20341;-79
2022/12/22 04:47:34;;;;;;;205.15;19.33;;;;;;;;;;5033987;28;20563;-80
2022/12/22 04:50:01;;;;;;;470.88;27.20;;;;;;;;;;5038893;28;20034;-80
2022/12/22 04:52:28;;;;;;;509.55;27.95;;;;;;;;;;5039718;28;20054;-80
2022/12/22 04:54:55;;;;;;;240.88;19.75;;;;;;;;;;5036853;28;20923;-80
2022/12/22 04:57:22;;;;;;;630.55;34.28;;;;;;;;;;5033524;28;20042;-80
2022/12/22 04:59:50;;;;;;;634.67;27.48;;;;;;;;;;5049555;28;20514;-80
2022/12/22 05:02:17;;;;;;;521.85;25.25;;;;;;;;;;5033647;28;20042;-80
2022/12/22 05:04:44;;;;;;;368.98;21.33;;;;;;;;;;5035381;28;20046;-80
2022/12/22 05:07:11;;;;;;;221.45;17.13;;;;;;;;;;5034343;28;20054;-80
2022/12/22 05:09:38;;;;;;;495.83;27.77;;;;;;;;;;5030699;28;20058;-79
2022/12/22 05:12:53;;;;;;;653.22;34.20;;;;;;;;;;5029700;28;20045;-80
2022/12/22 05:14:55;;;;;;;181.93;16.23;;;;;;;;;;5033021;28;20045;-80
2022/12/22 05:17:22;;;;;;;96.63;17.30;;;;;;;;;;5033914;28;20056;-80
2022/12/22 05:19:50;;;;;;;96.65;17.08;;;;;;;;;;5036512;28;20050;-80
2022/12/22 05:22:24;;;;;;;190.20;18.20;;;;;;;;;;5034073;28;20069;-80
2022/12/22 05:24:51;;;;;;;456.13;26.73;;;;;;;;;;5037768;28;21379;-80
2022/12/22 05:27:18;;;;;;;96.82;16.27;;;;;;;;;;5034632;28;20049;-80
2022/12/22 05:29:45;;;;;;;87.90;15.05;;;;;;;;;;5038380;28;20049;-80
2022/12/22 05:32:12;;;;;;;175.30;18.00;;;;;;;;;;5033428;28;21070;-80
2022/12/22 05:34:39;;;;;;;470.17;26.70;;;;;;;;;;5034099;28;20053;-80
2022/12/22 05:37:06;;;;;;;185.10;18.50;;;;;;;;;;5036953;28;20975;-80
2022/12/22 05:39:34;;;;;;;91.00;15.48;;;;;;;;;;5030690;28;20058;-80
2022/12/22 05:42:01;;;;;;;165.23;17.50;;;;;;;;;;5034354;28;20823;-80
2022/12/22 05:44:33;;;;;;;266.13;18.25;;;;;;;;;;5034421;28;20084;-80
2022/12/22 05:47:02;;;;;;;147.32;16.40;;;;;;;;;;5035915;28;20058;-80
2022/12/22 05:49:30;;;;;;;99.57;14.63;;;;;;;;;;5035540;28;20519;-80
2022/12/22 05:51:57;;;;;;;106.15;15.05;;;;;;;;;;5033877;28;20050;-79
2022/12/22 05:54:25;;;;;;;132.13;15.77;;;;;;;;;;5034544;28;20050;-79
2022/12/22 05:56:53;;;;;;;64.00;13.98;;;;;;;;;;5033838;28;20042;-80
2022/12/22 05:59:20;;;;;;;96.10;15.63;;;;;;;;;;5035762;28;20053;-80
2022/12/22 06:01:47;;;;;;;99.05;14.38;;;;;;;;;;5030592;28;20050;-80
2022/12/22 06:04:15;;;;;;;56.45;13.88;;;;;;;;;;5033876;28;20041;-81
2022/12/22 06:06:42;;;;;;;65.75;13.55;;;;;;;;;;5034532;28;20080;-81
2022/12/22 06:09:09;;;;;;;68.88;13.75;;;;;;;;;;5031438;28;20081;-80
2022/12/22 06:11:36;;;;;;;57.35;14.50;;;;;;;;;;5035622;28;20053;-81
2022/12/22 06:14:03;;;;;;;48.35;13.25;;;;;;;;;;5036703;28;20796;-80
2022/12/22 06:16:30;;;;;;;45.03;13.25;;;;;;;;;;5028756;28;20110;-81
2022/12/22 06:18:58;;;;;;;46.15;13.10;;;;;;;;;;5034744;28;20807;-80
2022/12/22 06:21:25;;;;;;;111.97;15.70;;;;;;;;;;5037653;28;20049;-80
2022/12/22 06:23:53;;;;;;;44.60;12.98;;;;;;;;;;5034518;28;20050;-81
2022/12/22 06:26:20;;;;;;;45.20;12.93;;;;;;;;;;5037386;28;20084;-80
2022/12/22 06:28:48;;;;;;;113.40;15.38;;;;;;;;;;5034139;28;20046;-81
2022/12/22 06:31:15;;;;;;;49.03;13.57;;;;;;;;;;5037248;28;20057;-80
2022/12/22 06:33:44;;;;;;;102.85;15.02;;;;;;;;;;5033360;28;20860;-80
2022/12/22 06:36:11;;;;;;;51.05;13.32;;;;;;;;;;5032987;28;20062;-80
2022/12/22 06:38:41;;;;;;;137.43;14.98;;;;;;;;;;5028097;28;20207;-80
2022/12/22 06:41:11;;;;;;;44.95;13.35;;;;;;;;;;5035121;28;20217;-80
2022/12/22 06:43:40;;;;;;;45.28;14.60;;;;;;;;;;5032575;28;20061;-80
2022/12/22 06:46:08;;;;;;;63.13;15.88;;;;;;;;;;5035989;28;20042;-80
2022/12/22 06:48:40;;;;;;;60.78;16.95;;;;;;;;;;5034770;28;20054;-80
2022/12/22 06:51:08;;;;;;;67.20;16.20;;;;;;;;;;5031007;28;20050;-80
2022/12/22 06:53:38;;;;;;;74.72;17.08;;;;;;;;;;5035868;28;20053;-80
2022/12/22 06:56:05;;;;;;;74.35;18.77;;;;;;;;;;5031074;28;20508;-80
2022/12/22 06:58:32;;;;;;;78.30;17.98;;;;;;;;;;5033364;28;20051;-80
2022/12/22 07:01:02;;;;;;;91.47;19.23;;;;;;;;;;5034695;28;20073;-80
2022/12/22 07:03:29;;;;;;;85.07;17.45;;;;;;;;;;5028653;28;20058;-80
2022/12/22 07:05:57;;;;;;;79.10;18.95;;;;;;;;;;5027968;28;20053;-80
2022/12/22 07:08:33;;;;;;;84.28;18.63;;;;;;;;;;5025128;28;20137;-80
2022/12/22 07:11:02;;;;;;;86.80;19.30;;;;;;;;;;5030350;28;20146;-80
2022/12/22 07:13:33;;;;;;;109.68;20.45;;;;;;;;;;5032630;28;20057;-80
2022/12/22 07:16:02;;;;;;;;;;;;;;;;;;5031498;28;20046;-81
2022/12/22 07:18:31;;;;;;;52.13;14.43;;;;;;;;;;5047365;28;44071;-80
2022/12/22 07:20:59;;;;;;;62.65;15.95;;;;;;;;;;5033015;28;20054;-81
2022/12/22 07:23:27;;;;;;;114.20;17.27;;;;;;;;;;5035335;28;20049;-80
2022/12/22 07:25:54;;;;;;;106.32;17.20;;;;;;;;;;5025797;28;20667;-80
2022/12/22 07:28:21;;;;;;;72.43;16.65;;;;;;;;;;5027895;28;20042;-80
2022/12/22 07:30:49;;;;;;;82.28;15.57;;;;;;;;;;5027775;28;20050;-80
2022/12/22 07:33:16;;;;;;;122.28;17.38;;;;;;;;;;5009431;28;20046;-80
2022/12/22 07:35:43;;;;;;;82.53;17.00;;;;;;;;;;5012545;28;20489;-80
2022/12/22 07:38:10;;;;;;;118.68;17.38;;;;;;;;;;5013816;28;20058;-80
2022/12/22 07:40:37;;;;;;;67.72;17.02;;;;;;;;;;5013754;28;20050;-80
2022/12/22 07:43:08;;;;;;;83.70;16.10;;;;;;;;;;5015193;28;20104;-80
2022/12/22 07:45:38;;;;;;;80.78;16.73;;;;;;;;;;5012493;28;20046;-80
2022/12/22 07:50:23;;;;;;;96.90;15.90;;;;;;;;;;5015863;28;20054;-80
2022/12/22 07:50:53;;;;;;;69.90;14.52;;;;;;;;;;5013302;28;20886;-80
2022/12/22 07:53:20;;;;;;;73.53;14.27;;;;;;;;;;5016076;28;20110;-80
2022/12/22 07:55:47;;;;;;;88.97;15.98;;;;;;;;;;5007951;28;20813;-80
2022/12/22 07:58:18;;;;;;;64.35;13.45;;;;;;;;;;5011259;28;20047;-80
2022/12/22 08:00:45;;;;;;;89.65;13.93;;;;;;;;;;5015969;28;20904;-80
2022/12/22 08:03:16;;;;;;;116.20;15.93;;;;;;;;;;5014190;28;20046;-80
2022/12/22 08:05:45;;;;;;;72.45;13.65;;;;;;;;;;5017446;28;20053;-81
2022/12/22 08:08:15;;;;;;;107.28;13.70;;;;;;;;;;5016608;28;20840;-80
2022/12/22 08:10:42;;;;;;;79.03;13.82;;;;;;;;;;5015580;28;20887;-80
2022/12/22 08:13:09;;;;;;;72.55;13.63;;;;;;;;;;5014872;28;20157;-80
2022/12/22 08:15:36;;;;;;;76.18;13.85;;;;;;;;;;5016103;28;20050;-80
2022/12/22 08:18:06;;;;;;;72.75;14.82;;;;;;;;;;5014175;28;20059;-80
2022/12/22 08:20:37;;;;;;;75.20;12.80;;;;;;;;;;5016142;28;20137;-80
2022/12/22 08:23:13;;;;;;;65.32;13.18;;;;;;;;;;5013361;28;20050;-80
2022/12/22 08:25:43;;;;;;;57.15;12.63;;;;;;;;;;5013553;28;20085;-80
2022/12/22 08:28:14;;;;;;;57.72;11.45;;;;;;;;;;5010064;28;20094;-80
2022/12/22 08:30:43;;;;;;;65.20;12.38;;;;;;;;;;5015760;28;20061;-80
2022/12/22 08:33:22;;;;;;;68.40;11.55;;;;;;;;;;5015199;28;20048;-80
2022/12/22 08:35:57;;;;;;;57.47;12.52;;;;;;;;;;5017290;28;20038;-80
2022/12/22 08:38:36;;;;;;;78.05;12.48;;;;;;;;;;5018452;28;20064;-81
2022/12/22 08:41:07;;;;;;;;;;;;;;;;;;5018333;28;20050;-81
2022/12/22 08:43:34;;;;;;;52.50;10.93;;;;;;;;;;5019174;28;44372;-80
2022/12/22 08:46:03;;;;;;;100.68;11.93;;;;;;;;;;5016951;28;20039;-81
2022/12/22 08:48:30;;;;;;;85.53;11.40;;;;;;;;;;5019003;28;20058;-80
2022/12/22 08:50:58;;;;;;;38.05;10.35;;;;;;;;;;5020570;28;20116;-80
2022/12/22 08:53:28;;;;;;;46.17;10.13;;;;;;;;;;5016055;28;20365;-81
2022/12/22 08:56:15;;;;;;;37.47;9.73;;;;;;;;;;5015319;28;20056;-80
2022/12/22 08:58:44;;;;;;;65.07;9.63;;;;;;;;;;5017684;28;20035;-81
2022/12/22 09:01:19;;;;;;;53.03;9.48;;;;;;;;;;5013473;28;20575;-80
2022/12/22 09:03:49;;;;;;;98.82;9.90;;;;;;;;;;5018840;28;20075;-80
2022/12/22 09:06:18;;;;;;;68.45;8.65;;;;;;;;;;5013663;28;20105;-80
2022/12/22 09:09:09;;;;;;;65.03;9.00;;;;;;;;;;5015211;28;20056;-80
2022/12/22 09:11:40;;;;;;;101.97;9.60;;;;;;;;;;5016453;28;20206;-80
2022/12/22 09:14:17;;;;;;;51.80;9.43;;;;;;;;;;5019605;28;20872;-80
2022/12/22 09:16:50;;;;;;;53.45;8.43;;;;;;;;;;5010573;28;20082;-80
2022/12/22 09:19:21;;;;;;;33.17;8.55;;;;;;;;;;5017094;28;20059;-80
2022/12/22 09:21:48;;;;;;;40.40;8.15;;;;;;;;;;5031393;28;20046;-82
2022/12/22 09:24:16;;;;;;;35.38;8.43;;;;;;;;;;5016682;28;20752;-80
2022/12/22 09:26:46;;;;;;;42.85;8.65;;;;;;;;;;5016066;28;20046;-80
2022/12/22 09:29:14;;;;;;;59.30;9.38;;;;;;;;;;5013126;28;20059;-80
2022/12/22 09:31:42;;;;;;;61.92;9.55;;;;;;;;;;5011672;28;20046;-80
2022/12/22 09:34:15;;;;;;;47.70;8.82;;;;;;;;;;5030289;28;20065;-80
2022/12/22 09:36:56;;;;;;;59.47;9.18;;;;;;;;;;5013223;28;20074;-80
2022/12/22 09:39:28;;;;;;;36.53;9.02;;;;;;;;;;5016852;28;20034;-80
2022/12/22 09:41:57;;;;;;;43.20;9.95;;;;;;;;;;5011892;28;20122;-80
2022/12/22 09:44:29;;;;;;;54.05;10.07;;;;;;;;;;5013484;28;20042;-80
2022/12/22 09:47:12;;;;;;;37.42;9.40;;;;;;;;;;5014713;28;20922;-80
2022/12/22 09:49:39;;;;;;;56.30;10.18;;;;;;;;;;5016293;28;20927;-80
2022/12/22 09:52:18;;;;;;;34.47;9.15;;;;;;;;;;5015658;28;20109;-81
2022/12/22 09:54:45;;;;;;;43.75;8.82;;;;;;;;;;5012702;28;20078;-80
2022/12/22 09:57:12;;;;;;;29.92;8.18;;;;;;;;;;5016299;28;20135;-80
2022/12/22 09:59:40;;;;;;;38.33;8.80;;;;;;;;;;5028010;28;20054;-80
2022/12/22 10:02:30;;;;;;;29.10;8.60;;;;;;;;;;5013570;28;20128;-80
2022/12/22 10:05:06;;;;;;;27.77;8.20;;;;;;;;;;5015681;28;20054;-80
2022/12/22 10:07:39;;;;;;;37.38;8.80;;;;;;;;;;5017226;28;20047;-80
2022/12/22 10:10:27;;;;;;;37.90;8.15;;;;;;;;;;5016754;28;20086;-80
2022/12/22 10:13:03;;;;;;;23.08;7.80;;;;;;;;;;5017464;28;20106;-80
2022/12/22 10:15:37;;;;;;;20.77;7.15;;;;;;;;;;5018741;28;20819;-80
2022/12/22 10:18:09;;;;;;;18.17;7.32;;;;;;;;;;5030070;28;20050;-80
2022/12/22 10:20:38;;;;;;;20.42;7.30;;;;;;;;;;5015703;28;20141;-80
2022/12/22 10:23:23;;;;;;;27.23;7.80;;;;;;;;;;5012399;28;20046;-80
2022/12/22 10:25:56;;;;;;;25.10;7.18;;;;;;;;;;5017607;28;20069;-80
2022/12/22 10:28:53;;;;;;;13.50;5.97;;;;;;;;;;5031907;28;20114;-79
2022/12/22 10:31:28;;;;;;;24.08;7.03;;;;;;;;;;5016899;28;20062;-80
2022/12/22 10:34:19;;;;;;;;;;;;;;;;;;;;;
2022/12/22 10:36:48;;;;;;;17.40;7.07;;;;;;;;;;5019625;28;20057;-80
2022/12/22 10:39:24;;;;;;;27.58;7.95;;;;;;;;;;5016432;28;20050;-80
2022/12/22 10:41:54;;;;;;;23.73;8.05;;;;;;;;;;5015453;28;20062;-80
2022/12/22 10:44:24;;;;;;;25.08;8.07;;;;;;;;;;5016777;28;20114;-80
2022/12/22 10:46:53;;;;;;;19.75;7.80;;;;;;;;;;5014168;28;20085;-79
2022/12/22 10:49:37;;;;;;;24.98;7.82;;;;;;;;;;5017574;28;20065;-79
2022/12/22 10:52:22;;;;;;;24.77;8.13;;;;;;;;;;5014850;28;20134;-80
2022/12/22 10:55:18;;;;;;;24.67;8.45;;;;;;;;;;5030366;28;20250;-79
2022/12/22 10:57:46;;;;;;;28.10;8.55;;;;;;;;;;5029418;28;20054;-80
2022/12/22 11:00:24;;;;;;;24.58;8.90;;;;;;;;;;5036547;28;20074;-80
2022/12/22 11:02:56;;;;;;;20.65;8.35;;;;;;;;;;5022732;28;20046;-80
2022/12/22 11:05:24;;;;;;;23.50;9.68;;;;;;;;;;5027365;28;20061;-79
2022/12/22 11:07:51;;;;;;;23.95;9.88;;;;;;;;;;5034036;28;20804;-80
2022/12/22 11:10:36;;;;;;;25.85;10.55;;;;;;;;;;5020709;28;20046;-80
2022/12/22 11:13:07;;;;;;;32.55;11.13;;;;;;;;;;5020316;28;20057;-79
2022/12/22 11:15:48;;;;;;;29.08;11.73;;;;;;;;;;5021471;28;20145;-80
2022/12/22 11:18:21;;;;;;;28.38;11.27;;;;;;;;;;5018868;28;20053;-80
2022/12/22 11:20:49;;;;;;;31.70;12.52;;;;;;;;;;5012070;28;20050;-79
2022/12/22 11:23:35;;;;;;;29.52;11.95;;;;;;;;;;5034287;28;20073;-80
2022/12/22 11:26:21;;;;;;;26.30;12.10;;;;;;;;;;5017299;28;20061;-80
2022/12/22 11:28:54;;;;;;;35.05;13.07;;;;;;;;;;5020906;28;20105;-80
2022/12/22 11:31:38;;;;;;;36.28;13.63;;;;;;;;;;5012633;28;20568;-79
2022/12/22 11:34:24;;;;;;;45.55;15.55;;;;;;;;;;5015747;28;20057;-79
2022/12/22 11:37:01;;;;;;;34.03;14.20;;;;;;;;;;5015791;28;20078;-80
2022/12/22 11:39:29;;;;;;;39.10;13.07;;;;;;;;;;5016776;28;20887;-79
2022/12/22 11:42:15;;;;;;;33.30;13.13;;;;;;;;;;5019427;28;20210;-79
2022/12/22 11:45:00;;;;;;;35.63;13.30;;;;;;;;;;5014288;28;20099;-79
2022/12/22 11:47:38;;;;;;;30.85;12.93;;;;;;;;;;5015267;28;20049;-80
2022/12/22 11:50:13;;;;;;;26.38;10.02;;;;;;;;;;5015378;28;20070;-80
2022/12/22 11:53:11;;;;;;;26.70;10.48;;;;;;;;;;5017902;28;20045;-79
2022/12/22 11:56:03;;;;;;;24.25;9.63;;;;;;;;;;5014220;28;20039;-79
2022/12/22 11:58:52;;;;;;;22.10;9.02;;;;;;;;;;5011496;28;20407;-79
2022/12/22 12:01:37;;;;;;;20.90;8.52;;;;;;;;;;5019061;28;20054;-79
2022/12/22 12:04:20;;;;;;;19.38;6.45;;;;;;;;;;5013826;28;20050;-79
2022/12/22 12:06:47;;;;;;;13.13;5.90;;;;;;;;;;5013248;28;20113;-79
2022/12/22 12:09:34;;;;;;;18.45;6.07;;;;;;;;;;5009434;28;20133;-79
2022/12/22 12:12:01;;;;;;;15.70;6.03;;;;;;;;;;5011849;28;20820;-79
2022/12/22 12:14:37;;;;;;;19.05;5.97;;;;;;;;;;5025641;28;20102;-78
2022/12/22 12:17:23;;;;;;;16.20;6.07;;;;;;;;;;5006616;28;20058;-79
2022/12/22 12:20:06;;;;;;;15.02;5.75;;;;;;;;;;5014259;28;20807;-78
2022/12/22 12:22:52;;;;;;;21.45;6.70;;;;;;;;;;5006937;28;20532;-79
2022/12/22 12:25:30;;;;;;;15.75;6.35;;;;;;;;;;5026249;28;20046;-78
2022/12/22 12:28:04;;;;;;;19.15;6.82;;;;;;;;;;5017814;28;20111;-78
2022/12/22 12:30:36;;;;;;;18.40;6.85;;;;;;;;;;5008363;28;20061;-78
2022/12/22 12:33:08;;;;;;;17.45;7.22;;;;;;;;;;5024534;28;20047;-78
2022/12/22 12:35:42;;;;;;;26.55;8.00;;;;;;;;;;5004410;28;20114;-78
2022/12/22 12:38:21;;;;;;;16.25;7.97;;;;;;;;;;5006251;28;20148;-78
2022/12/22 12:41:17;;;;;;;24.27;9.02;;;;;;;;;;5010506;28;20057;-78
2022/12/22 12:43:44;;;;;;;20.00;9.35;;;;;;;;;;5010431;28;20054;-79
2022/12/22 12:46:30;;;;;;;21.98;10.32;;;;;;;;;;5009635;28;20054;-78
2022/12/22 12:48:59;;;;;;;28.38;12.20;;;;;;;;;;5010050;28;20499;-79
2022/12/22 12:51:55;;;;;;;31.55;12.75;;;;;;;;;;5011295;28;20050;-78
2022/12/22 12:54:30;;;;;;;26.63;11.40;;;;;;;;;;5013608;28;20508;-79
2022/12/22 12:57:09;;;;;;;32.40;10.98;;;;;;;;;;5010802;28;20050;-78
2022/12/22 12:59:39;;;;;;;34.25;12.88;;;;;;;;;;5009042;28;20042;-78
2022/12/22 13:02:27;;;;;;;30.08;12.00;;;;;;;;;;5013660;28;20104;-79
2022/12/22 13:05:12;;;;;;;30.50;11.85;;;;;;;;;;5009389;28;20097;-79
2022/12/22 13:07:58;;;;;;;23.88;10.95;;;;;;;;;;5009548;28;20050;-79
2022/12/22 13:10:25;;;;;;;22.80;11.23;;;;;;;;;;5008048;28;20116;-79
2022/12/22 13:12:53;;;;;;;31.13;13.10;;;;;;;;;;5008543;28;20078;-79
2022/12/22 13:15:30;;;;;;;30.42;13.32;;;;;;;;;;5013396;28;20052;-79
2022/12/22 13:17:58;;;;;;;32.90;13.40;;;;;;;;;;5007863;28;20061;-78
2022/12/22 13:20:36;;;;;;;36.60;13.70;;;;;;;;;;5012927;28;20035;-78
2022/12/22 13:23:09;;;;;;;31.33;12.82;;;;;;;;;;5011712;28;20141;-79
2022/12/22 13:25:41;;;;;;;35.75;14.00;;;;;;;;;;5009235;28;20046;-79
2022/12/22 13:28:14;;;;;;;33.95;14.57;;;;;;;;;;5007303;28;20042;-79
2022/12/22 13:30:45;;;;;;;37.50;14.77;;;;;;;;;;5012730;28;20050;-78
2022/12/22 13:33:15;;;;;;;37.15;15.25;;;;;;;;;;5013677;28;20050;-78
2022/12/22 13:35:42;;;;;;;34.42;14.43;;;;;;;;;;5010598;28;20054;-78
2022/12/22 13:38:32;;;;;;;35.53;14.48;;;;;;;;;;5007146;28;20049;-78
2022/12/22 13:41:00;;;;;;;37.05;15.07;;;;;;;;;;5014506;28;20070;-78
2022/12/22 13:43:28;;;;;;;32.92;14.75;;;;;;;;;;5013368;28;20046;-78
2022/12/22 13:45:57;;;;;;;38.28;16.85;;;;;;;;;;5006535;28;20118;-78
2022/12/22 13:48:29;;;;;;;41.80;15.60;;;;;;;;;;5012194;28;20097;-78
2022/12/22 13:50:57;;;;;;;32.92;15.13;;;;;;;;;;5009926;28;20042;-79
2022/12/22 13:53:36;;;;;;;39.58;16.05;;;;;;;;;;5010330;28;20112;-79
2022/12/22 13:56:27;;;;;;;35.47;15.32;;;;;;;;;;5020097;28;20078;-78
2022/12/22 13:58:57;;;;;;;34.75;16.17;;;;;;;;;;5011442;28;20042;-79
2022/12/22 14:01:24;;;;;;;39.38;15.70;;;;;;;;;;5012820;28;20098;-78
2022/12/22 14:04:00;;;;;;;44.70;16.30;;;;;;;;;;5012644;28;20930;-79
2022/12/22 14:06:29;;;;;;;41.92;16.65;;;;;;;;;;5012376;28;20054;-79
2022/12/22 14:09:17;;;;;;;37.00;16.35;;;;;;;;;;5014542;28;20042;-79
2022/12/22 14:11:52;;;;;;;38.03;15.63;;;;;;;;;;5005340;28;20440;-79
2022/12/22 14:14:21;;;;;;;36.15;15.48;;;;;;;;;;5013461;28;20533;-79
2022/12/22 14:16:49;;;;;;;36.00;16.08;;;;;;;;;;5011647;28;20050;-79
2022/12/22 14:19:17;;;;;;;37.10;16.27;;;;;;;;;;5010640;28;20046;-79
2022/12/22 14:21:46;;;;;;;39.90;17.27;;;;;;;;;;5006699;28;20026;-79
2022/12/22 14:24:16;;;;;;;37.40;16.35;;;;;;;;;;5010737;28;20053;-79
2022/12/22 14:26:43;;;;;;;38.45;15.82;;;;;;;;;;5006640;28;20054;-79
2022/12/22 14:29:15;;;;;;;38.45;15.90;;;;;;;;;;5009621;28;20092;-79
2022/12/22 14:32:02;;;;;;;38.60;17.00;;;;;;;;;;5007584;28;20062;-79
2022/12/22 14:34:31;;;;;;;35.20;16.45;;;;;;;;;;5013357;28;20089;-79
2022/12/22 14:36:58;;;;;;;40.47;16.98;;;;;;;;;;5013804;28;20042;-79
2022/12/22 14:39:30;;;;;;;40.00;17.77;;;;;;;;;;5015133;28;20172;-81
2022/12/22 14:41:59;;;;;;;39.65;17.38;;;;;;;;;;5016143;28;20105;-79
2022/12/22 14:44:31;;;;;;;37.17;17.33;;;;;;;;;;5016670;28;20046;-79
2022/12/22 14:47:11;;;;;;;41.95;17.17;;;;;;;;;;5014283;28;20046;-79
2022/12/22 14:49:49;;;;;;;41.88;17.38;;;;;;;;;;5015223;28;20128;-79
2022/12/22 14:52:26;;;;;;;38.60;17.02;;;;;;;;;;5011986;28;20031;-79
2022/12/22 14:54:54;;;;;;;41.83;18.05;;;;;;;;;;5014650;28;20042;-79
2022/12/22 14:57:35;;;;;;;47.30;18.77;;;;;;;;;;5014762;28;20058;-79
2022/12/22 15:00:28;;;;;;;40.28;18.77;;;;;;;;;;5014007;28;20062;-79
2022/12/22 15:02:56;;;;;;;41.30;18.13;;;;;;;;;;5011915;28;20054;-79
2022/12/22 15:05:24;;;;;;;40.85;17.55;;;;;;;;;;5015522;28;20057;-80
2022/12/22 15:07:55;;;;;;;45.05;18.95;;;;;;;;;;5018714;28;20050;-79
2022/12/22 15:10:38;;;;;;;49.72;19.13;;;;;;;;;;5014452;28;20497;-79
2022/12/22 15:13:11;;;;;;;49.65;20.95;;;;;;;;;;5016726;28;20057;-79
2022/12/22 15:15:38;;;;;;;47.17;19.38;;;;;;;;;;5029733;28;20054;-79
2022/12/22 15:18:05;;;;;;;43.03;19.75;;;;;;;;;;5018410;28;20050;-80
2022/12/22 15:20:33;;;;;;;47.92;21.30;;;;;;;;;;5014132;28;20608;-79
2022/12/22 15:23:13;;;;;;;52.03;20.27;;;;;;;;;;5015619;28;20058;-79
2022/12/22 15:25:40;;;;;;;44.13;19.92;;;;;;;;;;5013742;28;20266;-80
2022/12/22 15:28:08;;;;;;;59.58;22.13;;;;;;;;;;5013111;28;20050;-79
2022/12/22 15:30:35;;;;;;;48.28;21.00;;;;;;;;;;5014429;28;20829;-80
2022/12/22 15:33:02;;;;;;;53.40;21.77;;;;;;;;;;5012347;28;20039;-79
2022/12/22 15:35:31;;;;;;;46.80;23.17;;;;;;;;;;5012817;28;20138;-80
2022/12/22 15:37:59;;;;;;;55.42;21.13;;;;;;;;;;5014551;28;20058;-80
2022/12/22 15:40:26;;;;;;;54.03;21.60;;;;;;;;;;5023393;28;20050;-79
2022/12/22 15:42:54;;;;;;;46.47;22.25;;;;;;;;;;5014070;28;20141;-80
2022/12/22 15:45:23;;;;;;;55.90;23.38;;;;;;;;;;5010211;28;20046;-80
2022/12/22 15:48:26;;;;;;;55.10;22.58;;;;;;;;;;4899417;29;20060;-80
2022/12/22 15:50:54;;;;;;;56.58;22.38;;;;;;;;;;4913679;29;20113;-80
2022/12/22 15:53:21;;;;;;;55.38;21.88;;;;;;;;;;4910071;29;20059;-80
2022/12/22 15:55:50;;;;;;;52.83;22.35;;;;;;;;;;4913049;29;20053;-80
2022/12/22 15:58:22;;;;;;;58.20;22.63;;;;;;;;;;4914643;29;20057;-80
2022/12/22 16:00:49;;;;;;;60.15;23.02;;;;;;;;;;4911198;29;20754;-80
2022/12/22 16:03:17;;;;;;;57.10;22.58;;;;;;;;;;4919170;29;20085;-80
2022/12/22 16:05:44;;;;;;;53.75;21.55;;;;;;;;;;5005453;28;20501;-80
2022/12/22 16:08:32;;;;;;;60.35;23.65;;;;;;;;;;5011735;28;20050;-80
2022/12/22 16:11:00;;;;;;;65.03;24.50;;;;;;;;;;5005314;28;20057;-80
2022/12/22 16:13:28;;;;;;;69.25;23.42;;;;;;;;;;5003586;28;20856;-80
2022/12/22 16:15:58;;;;;;;69.32;22.92;;;;;;;;;;5012216;28;20050;-80
2022/12/22 16:18:26;;;;;;;63.63;22.80;;;;;;;;;;5018389;28;20043;-79
2022/12/22 16:20:53;;;;;;;55.72;21.88;;;;;;;;;;5016493;28;20050;-79
2022/12/22 16:23:22;;;;;;;61.67;22.00;;;;;;;;;;5010881;28;20150;-80
2022/12/22 16:25:57;;;;;;;57.40;22.45;;;;;;;;;;5008870;28;20058;-79
2022/12/22 16:28:28;;;;;;;60.45;21.35;;;;;;;;;;5014856;28;20050;-81
2022/12/22 16:30:55;;;;;;;68.93;21.80;;;;;;;;;;5013107;28;20050;-80
2022/12/22 16:33:23;;;;;;;62.67;21.35;;;;;;;;;;5014163;28;20051;-80
2022/12/22 16:35:50;;;;;;;59.78;21.77;;;;;;;;;;5013980;28;20046;-80
2022/12/22 16:38:19;;;;;;;81.10;21.88;;;;;;;;;;5013119;28;20564;-80
2022/12/22 16:40:51;;;;;;;70.25;21.05;;;;;;;;;;5013213;28;20043;-80
2022/12/22 16:43:24;;;;;;;71.35;20.48;;;;;;;;;;5009011;28;20035;-80
2022/12/22 16:46:12;;;;;;;60.17;19.92;;;;;;;;;;5008716;28;20196;-80
2022/12/22 16:48:42;;;;;;;66.40;19.88;;;;;;;;;;5015184;28;20151;-80
2022/12/22 16:51:32;;;;;;;51.90;18.60;;;;;;;;;;5015142;28;20050;-81
2022/12/22 16:54:03;;;;;;;48.90;17.93;;;;;;;;;;5013635;28;20058;-81
2022/12/22 16:56:31;;;;;;;54.83;17.27;;;;;;;;;;5008970;28;20062;-81
2022/12/22 16:58:59;;;;;;;53.13;16.35;;;;;;;;;;5008593;28;20130;-81
2022/12/22 17:01:51;;;;;;;57.88;18.25;;;;;;;;;;5012172;28;20050;-82
2022/12/22 17:04:21;;;;;;;54.10;16.38;;;;;;;;;;5008325;28;20051;-81
2022/12/22 17:06:49;;;;;;;48.35;16.98;;;;;;;;;;5011054;28;20054;-82
2022/12/22 17:09:20;;;;;;;51.67;18.35;;;;;;;;;;5013472;28;20042;-82
2022/12/22 17:11:50;;;;;;;75.05;16.45;;;;;;;;;;5014477;28;20093;-81
2022/12/22 17:14:38;;;;;;;55.42;16.15;;;;;;;;;;5012606;28;20046;-82
2022/12/22 17:17:16;;;;;;;47.50;15.73;;;;;;;;;;5008639;28;20850;-81
2022/12/22 17:19:46;;;;;;;42.92;16.58;;;;;;;;;;5011224;28;20559;-81
2022/12/22 17:22:22;;;;;;;43.70;16.45;;;;;;;;;;5005207;28;20046;-81
2022/12/22 17:24:50;;;;;;;47.10;16.40;;;;;;;;;;5008360;28;20137;-81
2022/12/22 17:27:30;;;;;;;56.42;16.05;;;;;;;;;;5007051;28;20043;-81
2022/12/22 17:30:07;;;;;;;55.87;16.70;;;;;;;;;;5001585;28;20572;-81
2022/12/22 17:32:45;;;;;;;57.90;16.35;;;;;;;;;;5008612;28;20051;-81
2022/12/22 17:35:23;;;;;;;52.33;16.40;;;;;;;;;;5005531;28;20086;-81
2022/12/22 17:38:08;;;;;;;56.58;15.88;;;;;;;;;;5009104;28;20878;-81
2022/12/22 17:40:35;;;;;;;60.60;16.05;;;;;;;;;;5010919;28;20682;-81
2022/12/22 17:43:05;;;;;;;44.13;15.35;;;;;;;;;;5001911;28;20157;-81
2022/12/22 17:45:38;;;;;;;41.95;14.77;;;;;;;;;;5004095;28;20056;-81
2022/12/22 17:48:16;;;;;;;36.92;13.52;;;;;;;;;;5020986;28;20070;-81
2022/12/22 17:50:46;;;;;;;41.47;14.80;;;;;;;;;;5006529;28;20046;-82
2022/12/22 17:53:14;;;;;;;43.70;13.32;;;;;;;;;;5011641;28;20141;-81
2022/12/22 17:55:42;;;;;;;43.20;13.70;;;;;;;;;;5009931;28;20070;-81
2022/12/22 17:58:32;;;;;;;36.10;13.63;;;;;;;;;;5013823;28;20124;-81
2022/12/22 18:00:59;;;;;;;36.95;13.65;;;;;;;;;;5007860;28;20161;-82
2022/12/22 18:03:26;;;;;;;41.90;13.30;;;;;;;;;;5006903;28;20093;-82
2022/12/22 18:05:54;;;;;;;53.95;13.68;;;;;;;;;;5010817;28;22008;-82
2022/12/22 18:08:23;;;;;;;44.72;13.75;;;;;;;;;;5002066;28;20070;-81
2022/12/22 18:10:54;;;;;;;44.67;12.32;;;;;;;;;;5010040;28;20062;-81
2022/12/22 18:13:24;;;;;;;52.17;13.30;;;;;;;;;;5004813;28;20524;-81
2022/12/22 18:15:55;;;;;;;59.05;13.85;;;;;;;;;;5007431;28;20138;-81
2022/12/22 18:18:28;;;;;;;61.03;13.20;;;;;;;;;;5023877;28;20054;-82
2022/12/22 18:20:55;;;;;;;59.75;13.82;;;;;;;;;;5008112;28;20915;-82
2022/12/22 18:23:35;;;;;;;57.08;13.85;;;;;;;;;;5007108;28;20286;-81